Time;durP1;ratioP1;P1;durP2;ratioP2;P2;SDS_P1;SDS_P2;PMS_P1;PMS_P2;Temp;Humidity;BMP_temperature;BMP_pressure;BME280_temperature;BME280_humidity;BME280_pressure;Samples;Min_cycle;Max_cycle;Signal;HPM_P1;HPM_P2
2020/12/16 00:00:46;;;;;;;56.77;25.37;;;7.40;99.90;;;;;;4976548;28;20288;-90
2020/12/16 00:17:04;;;;;;;70.07;26.60;;;7.40;99.90;;;;;;5020185;23;20671;-90
2020/12/16 00:19:31;;;;;;;57.87;24.90;;;7.30;99.90;;;;;;4975483;28;20300;-92
2020/12/16 00:21:58;;;;;;;56.17;24.17;;;7.20;99.90;;;;;;4976337;28;20650;-92
2020/12/16 00:24:25;;;;;;;55.40;25.43;;;7.20;99.90;;;;;;4975977;28;20672;-91
2020/12/16 00:26:51;;;;;;;53.87;24.67;;;7.10;99.90;;;;;;4976436;28;20231;-93
2020/12/16 00:29:18;;;;;;;50.20;23.73;;;7.20;99.90;;;;;;4975047;28;20200;-93
2020/12/16 00:31:44;;;;;;;56.47;25.27;;;7.10;99.90;;;;;;4975419;28;20213;-93
2020/12/16 00:34:11;;;;;;;58.73;24.17;;;7.20;99.90;;;;;;4975551;28;20704;-93
2020/12/16 00:36:39;;;;;;;61.00;26.03;;;7.30;99.90;;;;;;4979097;28;20263;-93
2020/12/16 00:39:06;;;;;;;56.63;25.93;;;7.30;99.90;;;;;;4979337;28;20212;-93
2020/12/16 00:41:34;;;;;;;71.03;26.20;;;7.30;99.90;;;;;;4978560;28;20189;-93
2020/12/16 00:44:00;;;;;;;52.00;23.67;;;7.20;99.90;;;;;;4978789;28;20199;-93
2020/12/16 00:46:27;;;;;;;61.47;25.03;;;7.20;99.90;;;;;;4978840;28;20290;-93
2020/12/16 00:48:53;;;;;;;59.33;24.43;;;7.10;99.90;;;;;;4978719;28;20630;-92
2020/12/16 00:51:21;;;;;;;62.03;24.77;;;7.00;99.90;;;;;;4978516;28;20206;-91
2020/12/16 00:53:47;;;;;;;57.87;24.07;;;7.10;99.90;;;;;;4978995;28;20586;-93
2020/12/16 00:56:13;;;;;;;54.63;25.30;;;7.00;99.90;;;;;;4978667;28;20308;-92
2020/12/16 00:58:40;;;;;;;55.40;22.97;;;7.00;99.90;;;;;;4979032;28;20288;-93
2020/12/16 01:01:07;;;;;;;51.60;22.37;;;7.00;99.90;;;;;;4978497;28;20206;-92
2020/12/16 01:03:33;;;;;;;51.23;23.60;;;6.90;99.90;;;;;;4979007;28;20201;-92
2020/12/16 01:06:00;;;;;;;42.70;22.27;;;6.90;99.90;;;;;;4978903;28;20653;-91
2020/12/16 01:08:27;;;;;;;47.40;21.27;;;6.80;99.90;;;;;;4978988;28;20555;-93
2020/12/16 01:10:53;;;;;;;43.20;20.83;;;6.80;99.90;;;;;;4978692;28;20205;-93
2020/12/16 01:13:20;;;;;;;51.20;21.17;;;6.80;99.90;;;;;;4978164;28;20233;-93
2020/12/16 01:15:46;;;;;;;40.13;20.13;;;6.70;99.90;;;;;;4977665;28;20232;-92
2020/12/16 01:18:12;;;;;;;44.50;20.30;;;6.70;99.90;;;;;;4978529;28;20198;-92
2020/12/16 01:20:39;;;;;;;43.70;20.57;;;6.70;99.90;;;;;;4978491;28;20560;-92
2020/12/16 01:23:05;;;;;;;33.87;18.43;;;6.70;99.90;;;;;;4977985;28;20213;-92
2020/12/16 01:25:33;;;;;;;37.03;19.67;;;6.70;99.90;;;;;;4979294;28;20211;-90
2020/12/16 01:28:00;;;;;;;53.67;20.57;;;6.70;99.90;;;;;;4979717;28;20651;-91
2020/12/16 01:30:28;;;;;;;40.70;21.43;;;6.70;99.90;;;;;;4979782;28;20251;-92
2020/12/16 01:36:15;;;;;;;45.57;19.60;;;6.70;99.90;;;;;;5015541;23;20272;-91
2020/12/16 01:38:42;;;;;;;36.47;18.93;;;6.60;99.90;;;;;;4980192;28;20619;-92
2020/12/16 05:48:49;;;;;;;20.40;11.43;;;8.60;99.90;;;;;;1647249;23;20728;-86
2020/12/16 05:51:17;;;;;;;22.50;13.00;;;8.70;99.90;;;;;;4981388;28;20209;-90
2020/12/16 05:53:44;;;;;;;23.30;12.03;;;8.60;99.90;;;;;;4979612;28;20582;-91
2020/12/16 05:56:10;;;;;;;25.37;12.00;;;8.60;99.90;;;;;;4978042;28;20584;-90
2020/12/16 05:58:37;;;;;;;19.93;11.30;;;8.60;99.90;;;;;;4977643;28;20294;-89
2020/12/16 06:01:05;;;;;;;25.70;11.70;;;8.60;99.90;;;;;;4979088;28;20197;-88
2020/12/16 06:03:32;;;;;;;24.13;11.23;;;8.50;99.90;;;;;;4978325;28;20628;-90
2020/12/16 06:06:01;;;;;;;17.60;10.10;;;8.40;99.90;;;;;;4978355;28;20280;-87
2020/12/16 06:08:33;;;;;;;17.67;10.77;;;8.40;99.90;;;;;;4978895;28;20568;-88
2020/12/16 06:11:02;;;;;;;20.60;12.00;;;8.30;99.90;;;;;;4981486;28;20625;-86
2020/12/16 06:13:56;;;;;;;17.50;9.87;;;8.20;99.90;;;;;;4985088;28;20252;-88
2020/12/16 06:16:56;;;;;;;17.47;9.67;;;8.10;99.90;;;;;;4910122;29;20724;-88
2020/12/16 06:22:28;;;;;;;22.53;10.37;;;7.90;99.90;;;;;;4908255;29;20210;-87
2020/12/16 06:24:58;;;;;;;18.17;9.43;;;7.90;99.90;;;;;;4901285;29;20192;-86
2020/12/16 06:27:33;;;;;;;16.77;11.47;;;7.80;99.90;;;;;;4974901;23;20262;-83
2020/12/16 06:30:06;;;;;;;16.70;9.90;;;7.80;99.90;;;;;;4950093;29;20261;-84
2020/12/16 06:33:12;;;;;;;14.57;9.67;;;7.80;99.90;;;;;;4941036;29;20250;-84
2020/12/16 06:35:58;;;;;;;21.93;10.77;;;7.70;99.90;;;;;;4943838;29;20698;-84
2020/12/16 06:38:38;;;;;;;21.07;10.37;;;7.60;99.90;;;;;;5071911;23;20241;-81
2020/12/16 06:41:31;;;;;;;15.97;10.33;;;7.60;99.90;;;;;;4953652;29;20217;-83
2020/12/16 06:47:04;;;;;;;19.87;11.63;;;7.50;99.90;;;;;;5045645;23;20244;-82
2020/12/16 06:49:41;;;;;;;15.73;11.43;;;7.50;99.90;;;;;;4983558;28;20674;-83
2020/12/16 06:52:13;;;;;;;18.73;11.90;;;7.30;99.90;;;;;;4982726;28;20224;-83
2020/12/16 06:54:44;;;;;;;17.33;11.60;;;7.30;99.90;;;;;;4978656;28;20237;-86
2020/12/16 06:57:15;;;;;;;18.07;11.67;;;7.20;99.90;;;;;;4978394;28;20588;-85
2020/12/16 07:00:06;;;;;;;17.40;11.23;;;7.20;99.90;;;;;;4978857;28;20196;-85
2020/12/16 07:03:18;;;;;;;17.80;11.60;;;7.20;99.90;;;;;;4972991;28;20217;-83
2020/12/16 07:09:18;;;;;;;24.00;16.75;;;7.10;99.90;;;;;;4968423;28;20498;-81
2020/12/16 07:11:49;;;;;;;21.07;11.67;;;7.20;99.90;;;;;;4991935;28;20200;-83
2020/12/16 07:16:54;;;;;;;16.07;11.47;;;7.20;99.90;;;;;;5112158;23;20221;-81
2020/12/16 07:19:32;;;;;;;18.43;11.87;;;7.20;99.90;;;;;;4978815;28;20209;-81
2020/12/16 07:22:30;;;;;;;20.47;10.83;;;7.10;99.90;;;;;;4968302;29;20293;-82
2020/12/16 07:33:13;;;;;;;18.13;11.00;;;7.20;99.90;;;;;;5276190;23;20240;-81
2020/12/16 07:43:32;;;;;;;18.30;11.07;;;7.00;99.90;;;;;;5032821;23;20255;-83
2020/12/16 07:48:26;;;;;;;18.67;11.30;;;7.10;99.90;;;;;;5696936;23;20257;-83
2020/12/16 07:50:59;;;;;;;22.27;11.87;;;7.20;99.90;;;;;;5237348;23;20268;-81
2020/12/16 07:53:30;;;;;;;24.60;12.27;;;7.30;99.90;;;;;;4997659;28;20197;-81
2020/12/16 07:56:03;;;;;;;15.47;11.27;;;7.10;99.90;;;;;;4995869;28;20201;-80
2020/12/16 07:58:34;;;;;;;20.03;11.07;;;7.20;99.90;;;;;;4979201;28;20298;-81
2020/12/16 08:01:11;;;;;;;18.37;10.73;;;7.20;99.90;;;;;;4995577;28;20276;-80
2020/12/16 08:03:42;;;;;;;14.43;10.77;;;7.00;99.90;;;;;;4994592;28;20205;-82
2020/12/16 08:06:09;;;;;;;21.07;11.80;;;6.90;99.90;;;;;;4992637;28;20248;-80
2020/12/16 08:08:45;;;;;;;18.10;11.37;;;6.90;99.90;;;;;;4997415;28;20228;-80
2020/12/16 08:11:16;;;;;;;26.10;17.33;;;7.10;99.90;;;;;;4986717;23;20235;-82
2020/12/16 08:13:46;;;;;;;22.00;10.97;;;7.10;99.90;;;;;;5004276;23;20232;-80
2020/12/16 08:16:34;;;;;;;21.90;10.93;;;7.00;99.90;;;;;;4995777;28;20228;-80
2020/12/16 08:19:20;;;;;;;21.77;11.70;;;7.20;99.90;;;;;;4997958;28;20190;-81
2020/12/16 08:26:03;;;;;;;21.03;10.70;;;7.50;99.90;;;;;;4999664;28;20200;-81
2020/12/16 08:28:57;;;;;;;17.33;10.30;;;7.50;99.90;;;;;;5115800;23;20248;-81
2020/12/16 08:31:51;;;;;;;17.07;9.67;;;7.60;99.90;;;;;;5028319;23;20333;-80
2020/12/16 08:34:25;;;;;;;16.13;11.27;;;7.70;99.90;;;;;;5101371;23;20241;-80
2020/12/16 08:37:21;;;;;;;15.43;11.17;;;7.80;99.90;;;;;;4998484;28;20224;-83
2020/12/16 08:39:57;;;;;;;14.33;10.27;;;7.60;99.90;;;;;;4997193;28;20193;-85
2020/12/16 08:42:46;;;;;;;17.50;11.23;;;7.60;99.90;;;;;;5019752;23;20228;-84
2020/12/16 08:48:46;;;;;;;18.17;11.03;;;7.50;99.90;;;;;;5093561;23;20228;-84
2020/12/16 08:51:19;;;;;;;20.07;11.83;;;7.50;99.90;;;;;;4993386;28;20196;-89
2020/12/16 08:53:51;;;;;;;22.73;10.33;;;7.50;99.90;;;;;;4985224;28;20276;-90
2020/12/16 08:56:33;;;;;;;16.93;10.63;;;7.50;99.90;;;;;;4986800;28;20229;-90
2020/12/16 08:59:09;;;;;;;17.87;10.93;;;7.60;99.90;;;;;;4970160;28;20292;-92
2020/12/16 09:01:37;;;;;;;18.83;10.30;;;7.60;99.90;;;;;;4980305;28;20217;-93
2020/12/16 09:04:04;;;;;;;16.13;9.57;;;7.60;99.90;;;;;;4979178;28;20200;-90
2020/12/16 09:06:59;;;;;;;19.00;10.37;;;7.70;99.90;;;;;;4988984;28;20237;-82
2020/12/16 09:18:55;;;;;;;15.67;10.57;;;8.10;99.90;;;;;;5021233;23;20627;-92
2020/12/16 09:22:03;;;;;;;14.67;10.03;;;8.00;99.90;;;;;;4978878;28;20201;-93
2020/12/16 09:24:32;;;;;;;17.33;9.97;;;8.00;99.90;;;;;;4960877;28;20212;-93
2020/12/16 09:27:06;;;;;;;14.27;10.27;;;8.00;99.90;;;;;;4977816;28;20224;-94
2020/12/16 09:29:32;;;;;;;17.90;9.73;;;8.00;99.90;;;;;;4967134;28;20204;-93
2020/12/16 09:32:16;;;;;;;12.43;9.97;;;8.00;99.90;;;;;;4958594;28;20205;-93
2020/12/16 09:34:44;;;;;;;14.27;9.67;;;8.10;99.90;;;;;;4962991;28;20235;-93
2020/12/16 09:37:13;;;;;;;16.57;10.67;;;8.10;99.90;;;;;;4964473;28;20229;-93
2020/12/16 09:39:40;;;;;;;14.10;9.20;;;8.20;99.90;;;;;;4958887;29;20654;-91
2020/12/16 09:45:51;;;;;;;12.37;8.80;;;8.30;99.90;;;;;;4989855;23;20320;-91
2020/12/16 09:48:28;;;;;;;10.70;9.07;;;8.30;99.90;;;;;;4958777;29;20193;-94
2020/12/16 09:50:57;;;;;;;14.27;8.30;;;8.30;99.90;;;;;;4958854;29;20205;-91
2020/12/16 09:53:46;;;;;;;16.43;8.90;;;8.40;99.90;;;;;;4961833;29;20216;-94
2020/12/16 09:59:39;;;;;;;14.80;8.30;;;8.50;99.90;;;;;;5003536;23;20257;-93
2020/12/16 10:02:06;;;;;;;15.43;8.20;;;8.50;99.90;;;;;;4978429;28;20209;-95
2020/12/16 10:04:32;;;;;;;11.33;8.77;;;8.50;99.90;;;;;;4977604;28;20190;-90
2020/12/16 10:06:59;;;;;;;10.10;7.27;;;8.60;99.90;;;;;;4977493;28;20715;-95
2020/12/16 10:09:25;;;;;;;9.90;7.83;;;8.70;99.90;;;;;;4978247;28;20578;-93
2020/12/16 10:11:52;;;;;;;10.03;7.43;;;8.80;99.90;;;;;;4978041;28;20213;-92
2020/12/16 10:14:19;;;;;;;8.50;7.47;;;8.70;99.90;;;;;;4977655;28;20312;-94
2020/12/16 10:20:10;;;;;;;10.87;7.27;;;9.00;99.90;;;;;;4981382;28;20200;-92
2020/12/16 10:26:00;;;;;;;10.33;7.60;;;9.20;99.90;;;;;;4974622;28;20224;-91
2020/12/16 10:28:26;;;;;;;7.97;7.17;;;9.30;99.90;;;;;;4977657;28;20205;-94
2020/12/16 10:30:52;;;;;;;11.47;8.23;;;9.30;99.90;;;;;;4976522;28;20232;-91
2020/12/16 10:33:19;;;;;;;12.27;8.00;;;9.40;99.90;;;;;;4977082;28;20213;-92
2020/12/16 10:35:46;;;;;;;10.00;7.30;;;9.60;99.90;;;;;;4977981;28;20213;-93
2020/12/16 10:38:13;;;;;;;7.97;6.50;;;9.60;99.90;;;;;;4977122;28;20209;-94
2020/12/16 10:40:40;;;;;;;10.53;7.20;;;9.60;99.90;;;;;;4976481;28;20217;-91
2020/12/16 10:43:07;;;;;;;11.47;7.07;;;9.80;99.90;;;;;;4976501;28;20237;-93
2020/12/16 10:45:33;;;;;;;12.43;7.10;;;9.90;99.90;;;;;;4977545;28;20676;-92
2020/12/16 10:48:00;;;;;;;8.87;7.23;;;9.90;99.90;;;;;;4980437;28;20316;-92
2020/12/16 10:50:30;;;;;;;8.90;7.17;;;9.90;99.90;;;;;;4977295;28;20218;-92
2020/12/16 10:52:57;;;;;;;7.17;6.47;;;9.90;99.90;;;;;;4977074;28;20209;-92
2020/12/16 10:55:24;;;;;;;9.13;6.93;;;10.00;99.90;;;;;;4976553;28;20744;-91
2020/12/16 10:57:51;;;;;;;8.10;6.33;;;9.80;99.90;;;;;;4976302;28;20660;-92
2020/12/16 11:00:18;;;;;;;6.40;5.80;;;9.90;99.90;;;;;;4976371;28;20620;-94
2020/12/16 11:02:44;;;;;;;11.63;7.87;;;9.90;99.90;;;;;;4976711;28;20231;-92
2020/12/16 11:05:11;;;;;;;8.07;6.30;;;9.80;99.90;;;;;;4959405;28;20212;-93
2020/12/16 11:07:37;;;;;;;7.00;6.30;;;9.90;99.90;;;;;;4976378;28;20237;-92
2020/12/16 11:10:04;;;;;;;7.87;6.47;;;9.80;99.90;;;;;;4976169;28;20208;-92
2020/12/16 11:12:30;;;;;;;7.80;6.30;;;9.90;99.90;;;;;;4976469;28;20209;-92
2020/12/16 11:14:58;;;;;;;8.33;7.00;;;10.00;99.90;;;;;;4975975;28;20221;-93
2020/12/16 11:17:24;;;;;;;10.03;6.67;;;10.00;99.90;;;;;;4975929;28;20233;-93
2020/12/16 11:19:50;;;;;;;25.57;8.60;;;10.00;99.90;;;;;;4975895;28;20213;-95
2020/12/16 11:22:17;;;;;;;8.60;6.80;;;10.10;99.90;;;;;;4977198;28;20275;-91
2020/12/16 11:24:43;;;;;;;8.93;7.00;;;10.20;99.90;;;;;;4977719;28;20267;-90
2020/12/16 11:27:09;;;;;;;9.37;6.43;;;10.20;99.90;;;;;;4976631;28;20229;-92
2020/12/16 11:29:36;;;;;;;10.07;6.23;;;10.10;99.90;;;;;;4976032;28;20204;-93
2020/12/16 11:32:04;;;;;;;7.57;6.30;;;10.00;99.90;;;;;;4976311;28;20217;-92
2020/12/16 11:34:33;;;;;;;7.57;6.23;;;10.10;99.90;;;;;;4976252;28;20237;-93
2020/12/16 11:37:00;;;;;;;8.30;6.60;;;10.20;99.90;;;;;;4976393;28;20229;-93
2020/12/16 11:39:28;;;;;;;10.17;6.63;;;10.10;99.90;;;;;;4975503;28;20206;-93
2020/12/16 11:41:56;;;;;;;7.33;6.27;;;10.20;99.90;;;;;;4975804;28;20209;-91
2020/12/16 11:44:24;;;;;;;7.27;6.40;;;10.30;99.90;;;;;;4975394;28;20213;-92
2020/12/16 11:46:52;;;;;;;8.17;6.63;;;10.30;99.90;;;;;;4976253;28;20233;-93
2020/12/16 11:49:20;;;;;;;8.77;6.27;;;10.30;99.90;;;;;;4975535;28;20807;-92
2020/12/16 11:51:47;;;;;;;7.10;6.40;;;10.40;99.90;;;;;;4975483;28;20733;-95
2020/12/16 11:54:13;;;;;;;14.50;7.27;;;10.50;99.90;;;;;;4975452;28;20608;-95
2020/12/16 11:56:39;;;;;;;28.73;8.87;;;10.50;99.90;;;;;;4969426;28;20723;-95
2020/12/16 11:59:06;;;;;;;14.37;6.37;;;10.40;99.90;;;;;;4973668;28;20241;-95
2020/12/16 12:01:33;;;;;;;11.03;7.13;;;10.50;99.90;;;;;;4975056;28;20255;-94
2020/12/16 12:03:59;;;;;;;11.47;6.40;;;10.50;99.90;;;;;;4975884;28;20554;-94
2020/12/16 12:06:28;;;;;;;8.43;6.60;;;10.60;99.90;;;;;;4975632;28;20225;-93
2020/12/16 12:08:54;;;;;;;6.20;5.63;;;10.70;99.90;;;;;;4975722;28;20209;-93
2020/12/16 12:11:21;;;;;;;6.70;5.77;;;10.80;99.90;;;;;;4975492;28;20571;-95
2020/12/16 12:13:48;;;;;;;9.93;5.30;;;10.80;99.90;;;;;;4975152;28;20216;-94
2020/12/16 12:16:15;;;;;;;7.93;5.67;;;10.80;99.90;;;;;;4975829;28;20229;-94
2020/12/16 12:18:44;;;;;;;6.00;5.40;;;10.80;99.90;;;;;;4975385;28;20208;-95
2020/12/16 12:21:12;;;;;;;6.23;5.07;;;11.00;99.90;;;;;;4974844;28;20209;-95
2020/12/16 12:23:39;;;;;;;5.80;5.20;;;10.80;99.90;;;;;;4958085;28;20206;-94
2020/12/16 12:26:06;;;;;;;6.55;5.85;;;10.80;99.90;;;;;;4975306;28;20444;-93
2020/12/16 12:28:32;;;;;;;6.50;5.90;;;10.90;99.90;;;;;;4974900;28;20293;-93
2020/12/16 12:31:01;;;;;;;6.37;4.87;;;10.80;99.90;;;;;;4979264;28;20241;-93
2020/12/16 12:33:27;;;;;;;5.27;4.77;;;10.80;99.90;;;;;;4979305;28;20263;-94
2020/12/16 12:35:53;;;;;;;7.53;4.90;;;11.00;99.90;;;;;;4978883;28;20236;-94
2020/12/16 12:38:20;;;;;;;5.67;4.80;;;11.10;99.90;;;;;;4979000;28;20209;-93
2020/12/16 12:40:48;;;;;;;4.80;4.30;;;11.30;99.90;;;;;;4978844;28;20649;-93
2020/12/16 12:43:14;;;;;;;6.73;5.07;;;11.40;99.90;;;;;;4979113;28;20213;-94
2020/12/16 12:45:41;;;;;;;5.60;4.50;;;11.40;99.90;;;;;;4978900;28;20217;-94
2020/12/16 12:48:07;;;;;;;5.50;4.40;;;11.40;99.90;;;;;;4979046;28;20265;-94
2020/12/16 12:50:34;;;;;;;5.77;4.50;;;11.50;99.90;;;;;;4979241;28;20209;-93
2020/12/16 12:53:00;;;;;;;5.90;4.33;;;11.60;99.90;;;;;;4978727;28;20201;-94
2020/12/16 12:55:26;;;;;;;4.10;3.80;;;11.70;99.90;;;;;;4978925;28;20236;-94
2020/12/16 12:57:54;;;;;;;7.10;4.00;;;11.70;99.90;;;;;;4978753;28;20238;-93
2020/12/16 13:00:20;;;;;;;5.60;4.10;;;11.60;99.90;;;;;;4979419;28;20540;-93
2020/12/16 13:02:46;;;;;;;4.03;3.73;;;11.50;99.90;;;;;;4978996;28;20249;-93
2020/12/16 13:05:13;;;;;;;6.10;4.00;;;11.70;99.90;;;;;;4978971;28;20284;-93
2020/12/16 13:07:40;;;;;;;5.03;3.03;;;11.80;99.90;;;;;;4979391;28;20233;-93
2020/12/16 13:10:07;;;;;;;6.00;3.27;;;11.60;99.90;;;;;;4979377;28;20198;-93
2020/12/16 13:12:34;;;;;;;3.93;3.13;;;11.50;99.90;;;;;;4978715;28;20246;-93
2020/12/16 13:15:01;;;;;;;4.63;3.50;;;11.40;99.90;;;;;;4978662;28;20588;-92
2020/12/16 13:17:28;;;;;;;4.17;3.53;;;11.40;99.90;;;;;;4978572;28;20677;-92
2020/12/16 13:19:54;;;;;;;3.87;2.73;;;11.40;99.90;;;;;;4978156;28;20217;-93
2020/12/16 13:22:21;;;;;;;2.93;2.60;;;11.60;99.90;;;;;;4979021;28;20650;-94
2020/12/16 13:24:48;;;;;;;3.87;2.33;;;11.60;99.90;;;;;;4978688;28;20198;-94
2020/12/16 13:27:19;;;;;;;3.43;3.13;;;11.60;99.90;;;;;;4978713;28;20229;-94
2020/12/16 13:29:46;;;;;;;3.10;2.80;;;11.50;99.90;;;;;;4978227;28;20252;-94
2020/12/16 13:32:13;;;;;;;3.43;2.60;;;11.50;99.90;;;;;;4978528;28;20210;-94
2020/12/16 13:34:39;;;;;;;4.90;2.53;;;11.50;99.90;;;;;;4978656;28;20228;-94
2020/12/16 13:37:06;;;;;;;2.30;2.17;;;11.50;99.90;;;;;;4980952;28;20337;-94
2020/12/16 13:39:33;;;;;;;3.37;2.50;;;11.50;99.90;;;;;;4977876;28;20655;-93
2020/12/16 13:41:59;;;;;;;3.10;2.77;;;11.60;99.90;;;;;;4977480;28;20221;-93
2020/12/16 13:44:26;;;;;;;5.80;3.07;;;11.60;99.90;;;;;;4978769;28;20233;-94
2020/12/16 13:46:53;;;;;;;3.40;2.80;;;11.70;99.90;;;;;;4978757;28;20706;-94
2020/12/16 13:49:20;;;;;;;3.00;2.70;;;11.90;99.90;;;;;;4980199;28;20213;-93
2020/12/16 13:51:46;;;;;;;3.17;2.53;;;12.00;99.90;;;;;;4979923;28;20618;-93
2020/12/16 13:54:13;;;;;;;3.03;2.70;;;12.00;99.90;;;;;;4980666;28;20296;-93
2020/12/16 13:56:39;;;;;;;2.33;2.23;;;12.00;99.90;;;;;;4981022;28;20308;-93
2020/12/16 13:59:06;;;;;;;3.03;2.57;;;12.10;99.90;;;;;;4978706;28;20267;-93
2020/12/16 14:01:32;;;;;;;2.40;2.20;;;12.20;99.90;;;;;;4979351;28;20556;-93
2020/12/16 14:03:59;;;;;;;2.20;2.00;;;12.20;99.90;;;;;;4979427;28;20207;-93
2020/12/16 14:06:27;;;;;;;2.23;2.03;;;12.00;99.90;;;;;;4978113;28;20574;-94
2020/12/16 14:08:54;;;;;;;5.07;2.90;;;11.90;99.90;;;;;;4977766;28;20219;-94
2020/12/16 14:11:21;;;;;;;3.33;2.40;;;11.90;99.90;;;;;;4960400;28;20206;-92
2020/12/16 14:13:49;;;;;;;3.20;2.90;;;11.90;99.90;;;;;;4978206;28;20210;-92
2020/12/16 14:16:17;;;;;;;2.60;2.40;;;11.90;99.90;;;;;;4978610;28;20230;-93
2020/12/16 14:18:44;;;;;;;5.03;2.90;;;11.70;99.90;;;;;;4976812;28;20444;-93
2020/12/16 14:21:11;;;;;;;4.60;2.93;;;12.00;99.90;;;;;;4960895;28;20213;-93
2020/12/16 14:23:39;;;;;;;4.13;2.90;;;12.00;99.90;;;;;;4977773;28;20212;-91
2020/12/16 14:26:09;;;;;;;4.93;2.93;;;12.00;99.90;;;;;;4977139;28;20281;-94
2020/12/16 14:28:36;;;;;;;3.00;2.70;;;12.10;99.90;;;;;;4977603;28;20218;-93
2020/12/16 14:31:02;;;;;;;4.30;3.07;;;12.20;99.90;;;;;;4977259;28;20314;-93
2020/12/16 14:33:29;;;;;;;2.70;2.50;;;12.00;99.90;;;;;;4976972;28;20216;-93
2020/12/16 14:35:55;;;;;;;3.43;2.47;;;12.00;99.90;;;;;;4976701;28;20654;-93
2020/12/16 14:38:22;;;;;;;2.30;2.13;;;11.90;99.90;;;;;;4959613;28;20224;-93
2020/12/16 14:40:50;;;;;;;3.40;2.23;;;11.70;99.90;;;;;;4959481;28;20211;-93
2020/12/16 14:43:16;;;;;;;2.80;1.83;;;11.70;99.90;;;;;;4976561;28;20658;-93
2020/12/16 14:45:43;;;;;;;3.70;2.20;;;11.60;99.90;;;;;;4976581;28;20230;-93
2020/12/16 14:48:09;;;;;;;1.80;1.70;;;11.70;99.90;;;;;;4976826;28;20287;-93
2020/12/16 14:50:36;;;;;;;2.40;1.53;;;11.70;99.90;;;;;;4977490;28;20228;-93
2020/12/16 14:53:02;;;;;;;1.70;1.60;;;11.70;99.90;;;;;;4968186;28;20202;-92
2020/12/16 14:55:29;;;;;;;1.47;1.37;;;11.60;99.90;;;;;;4976678;28;20701;-93
2020/12/16 14:57:58;;;;;;;1.73;1.50;;;11.70;99.90;;;;;;4976525;28;20243;-93
2020/12/16 15:00:24;;;;;;;3.37;1.73;;;11.80;99.90;;;;;;4976937;28;20241;-94
2020/12/16 15:02:50;;;;;;;3.57;1.67;;;11.70;99.90;;;;;;4977263;28;20654;-93
2020/12/16 15:05:17;;;;;;;1.80;1.70;;;11.80;99.90;;;;;;4958840;28;20205;-90
2020/12/16 15:07:44;;;;;;;2.97;1.90;;;11.80;99.90;;;;;;4976387;28;20234;-90
2020/12/16 15:10:11;;;;;;;3.77;1.80;;;11.90;99.90;;;;;;4977383;28;20245;-92
2020/12/16 15:12:37;;;;;;;2.33;1.73;;;11.90;99.90;;;;;;4975719;28;21185;-93
2020/12/16 15:15:04;;;;;;;2.10;1.90;;;11.90;99.90;;;;;;4977044;28;20228;-93
2020/12/16 15:17:31;;;;;;;4.20;2.10;;;11.80;99.90;;;;;;4977506;28;20236;-94
2020/12/16 15:19:58;;;;;;;2.47;2.27;;;11.90;99.90;;;;;;4976208;28;20213;-90
2020/12/16 15:22:24;;;;;;;2.30;1.93;;;11.80;99.90;;;;;;4978157;28;20213;-93
2020/12/16 15:24:51;;;;;;;2.57;2.30;;;11.80;99.90;;;;;;4977792;28;20199;-92
2020/12/16 15:27:17;;;;;;;2.40;2.20;;;11.80;99.90;;;;;;4976974;28;20236;-92
2020/12/16 15:29:45;;;;;;;2.30;2.10;;;11.50;99.90;;;;;;4976237;28;20214;-92
2020/12/16 15:32:13;;;;;;;2.00;1.90;;;11.50;99.90;;;;;;4977062;28;20213;-93
2020/12/16 15:34:40;;;;;;;3.63;2.40;;;11.40;99.90;;;;;;4976711;28;20224;-93
2020/12/16 15:37:06;;;;;;;3.10;2.30;;;11.40;99.90;;;;;;4977382;28;20776;-93
2020/12/16 15:39:33;;;;;;;2.10;2.00;;;11.50;99.90;;;;;;4980283;28;20247;-92
2020/12/16 15:41:59;;;;;;;2.60;2.40;;;11.40;99.90;;;;;;4980204;28;20237;-93
2020/12/16 15:44:26;;;;;;;3.77;2.47;;;11.40;99.90;;;;;;4980938;28;20213;-94
2020/12/16 15:46:53;;;;;;;2.70;2.50;;;11.40;99.90;;;;;;4980256;28;20237;-93
2020/12/16 15:49:22;;;;;;;4.30;2.73;;;11.40;99.90;;;;;;4976332;28;20220;-92
2020/12/16 15:51:48;;;;;;;5.07;3.00;;;11.30;99.90;;;;;;4974479;28;20209;-95
2020/12/16 15:54:15;;;;;;;3.60;2.93;;;11.30;99.90;;;;;;4975762;28;20228;-92
2020/12/16 15:56:41;;;;;;;3.10;2.90;;;11.30;99.90;;;;;;4958026;28;20229;-93
2020/12/16 15:59:07;;;;;;;3.47;3.17;;;11.20;99.90;;;;;;4975047;28;20727;-91
2020/12/16 16:01:36;;;;;;;3.40;3.20;;;11.10;99.90;;;;;;4975256;28;20255;-91
2020/12/16 16:04:03;;;;;;;3.63;3.03;;;11.10;99.90;;;;;;4966904;28;20197;-91
2020/12/16 16:06:30;;;;;;;3.03;2.80;;;11.10;99.90;;;;;;4975247;28;20248;-92
2020/12/16 16:08:56;;;;;;;4.27;3.00;;;11.10;99.90;;;;;;4975366;28;20205;-91
2020/12/16 16:11:23;;;;;;;3.53;3.23;;;10.90;99.90;;;;;;4975155;28;20216;-91
2020/12/16 16:13:49;;;;;;;4.63;3.03;;;11.00;99.90;;;;;;4975147;28;20635;-92
2020/12/16 16:16:16;;;;;;;3.37;3.07;;;11.20;99.90;;;;;;4957624;28;20724;-90
2020/12/16 16:18:42;;;;;;;3.83;3.37;;;11.00;99.90;;;;;;4975289;28;20213;-92
2020/12/16 16:21:09;;;;;;;3.17;2.97;;;10.90;99.90;;;;;;4974949;28;20209;-93
2020/12/16 16:23:36;;;;;;;3.27;3.07;;;10.90;99.90;;;;;;4974785;28;20251;-93
2020/12/16 16:26:03;;;;;;;3.37;3.17;;;10.90;99.90;;;;;;4974804;28;20279;-92
2020/12/16 16:28:29;;;;;;;5.60;3.37;;;10.70;99.90;;;;;;4975319;28;20219;-92
2020/12/16 16:30:56;;;;;;;3.07;2.87;;;10.70;99.90;;;;;;4974981;28;20205;-93
2020/12/16 16:33:22;;;;;;;3.27;3.07;;;10.60;99.90;;;;;;4975282;28;20539;-94
2020/12/16 16:35:49;;;;;;;3.67;3.17;;;10.70;99.90;;;;;;4974355;28;20277;-92
2020/12/16 16:38:16;;;;;;;3.73;2.97;;;10.70;99.90;;;;;;4974956;28;20219;-92
2020/12/16 16:40:51;;;;;;;3.47;3.23;;;10.70;99.90;;;;;;4974910;28;20208;-91
2020/12/16 16:43:17;;;;;;;4.97;3.90;;;10.70;99.90;;;;;;4975359;28;20193;-92
2020/12/16 16:45:44;;;;;;;3.37;3.17;;;10.70;99.90;;;;;;4975102;28;20216;-92
2020/12/16 16:48:10;;;;;;;5.43;3.07;;;10.70;99.90;;;;;;4974249;28;20209;-93
2020/12/16 16:50:36;;;;;;;3.37;3.07;;;10.70;99.90;;;;;;4957682;28;20205;-94
2020/12/16 16:53:03;;;;;;;3.27;2.97;;;10.60;99.90;;;;;;4957759;28;20210;-95
2020/12/16 16:55:29;;;;;;;3.93;3.63;;;10.50;99.90;;;;;;4975256;28;20244;-89
2020/12/16 16:57:56;;;;;;;4.23;3.63;;;10.60;99.90;;;;;;4974446;28;20659;-89
2020/12/16 17:00:23;;;;;;;4.40;3.90;;;10.80;99.90;;;;;;4975213;28;20213;-89
2020/12/16 17:02:49;;;;;;;4.13;3.63;;;10.80;99.90;;;;;;4974356;28;20796;-89
2020/12/16 17:05:15;;;;;;;4.13;3.77;;;10.60;99.90;;;;;;4975518;28;20629;-89
2020/12/16 17:07:45;;;;;;;3.90;3.60;;;10.40;99.90;;;;;;4974530;28;20316;-90
2020/12/16 17:10:12;;;;;;;3.90;3.60;;;10.50;99.90;;;;;;4974832;28;20200;-90
2020/12/16 17:12:42;;;;;;;4.30;3.60;;;10.50;99.90;;;;;;4975555;28;20255;-89
2020/12/16 17:15:10;;;;;;;5.10;4.13;;;10.50;99.90;;;;;;4974348;28;20432;-90
2020/12/16 17:17:38;;;;;;;4.47;4.07;;;10.50;99.90;;;;;;4976917;28;20225;-89
2020/12/16 17:20:06;;;;;;;6.93;4.67;;;10.60;99.90;;;;;;4945389;28;20304;-88
2020/12/16 17:22:32;;;;;;;4.23;3.93;;;10.50;99.90;;;;;;4978161;28;20253;-89
2020/12/16 17:24:59;;;;;;;5.30;4.63;;;10.50;99.90;;;;;;4978221;28;20232;-90
2020/12/16 17:27:25;;;;;;;5.63;4.50;;;10.60;99.90;;;;;;4978232;28;20233;-90
2020/12/16 17:29:52;;;;;;;5.17;4.67;;;10.60;99.90;;;;;;4978746;28;20589;-89
2020/12/16 17:32:19;;;;;;;6.60;4.03;;;10.60;99.90;;;;;;4960515;28;20212;-89
2020/12/16 17:34:46;;;;;;;4.60;4.20;;;10.50;99.90;;;;;;4977772;28;20213;-88
2020/12/16 17:37:13;;;;;;;3.90;3.50;;;10.50;99.90;;;;;;4977797;28;20221;-88
2020/12/16 17:39:39;;;;;;;4.10;3.80;;;10.50;99.90;;;;;;4978377;28;20209;-89
2020/12/16 17:42:06;;;;;;;4.10;3.80;;;10.50;99.90;;;;;;4978566;28;20209;-89
2020/12/16 17:44:33;;;;;;;4.37;4.00;;;10.50;99.90;;;;;;4977664;28;20208;-89
2020/12/16 17:47:04;;;;;;;4.50;4.20;;;10.50;99.90;;;;;;4977609;28;20685;-88
2020/12/16 17:49:31;;;;;;;4.97;4.57;;;10.70;99.90;;;;;;4977683;28;20213;-88
2020/12/16 17:51:58;;;;;;;4.07;3.77;;;10.70;99.90;;;;;;4969699;28;20209;-88
2020/12/16 17:54:24;;;;;;;5.37;4.27;;;10.70;99.90;;;;;;4957266;28;20284;-89
2020/12/16 17:56:51;;;;;;;4.60;4.10;;;10.70;99.90;;;;;;4970286;28;20232;-89
2020/12/16 17:59:17;;;;;;;5.90;5.07;;;10.70;99.90;;;;;;4976832;28;20256;-89
2020/12/16 18:01:44;;;;;;;5.10;4.60;;;10.70;99.90;;;;;;4977486;28;20215;-89
2020/12/16 18:04:10;;;;;;;4.93;4.50;;;10.60;99.90;;;;;;4959649;28;20209;-89
2020/12/16 18:06:38;;;;;;;4.87;4.47;;;10.60;99.90;;;;;;4957728;28;20236;-89
2020/12/16 18:09:04;;;;;;;5.20;4.70;;;10.70;99.90;;;;;;4957597;29;20222;-88
2020/12/16 18:11:31;;;;;;;6.43;4.17;;;10.70;99.90;;;;;;4957762;28;20268;-89
2020/12/16 18:13:58;;;;;;;3.90;3.60;;;10.70;99.90;;;;;;4957725;29;20198;-89
2020/12/16 18:16:24;;;;;;;4.47;4.07;;;10.70;99.90;;;;;;4957677;28;20332;-91
2020/12/16 18:18:52;;;;;;;3.90;3.63;;;10.70;99.90;;;;;;4957804;29;20285;-90